Time;durP1;ratioP1;P1;durP2;ratioP2;P2;SDS_P1;SDS_P2;PMS_P1;PMS_P2;Temp;Humidity;BMP_temperature;BMP_pressure;BME280_temperature;BME280_humidity;BME280_pressure;Samples;Min_cycle;Max_cycle;Signal;HPM_P1;HPM_P2
2020/12/06 00:02:01;;;;;;;19.27;11.57;;;6.30;68.70;;;;;;5027194;28;20037;-77
2020/12/06 00:04:27;;;;;;;16.47;10.33;;;6.30;68.80;;;;;;5027294;28;20033;-76
2020/12/06 00:06:53;;;;;;;19.17;11.40;;;6.30;68.90;;;;;;5009757;28;20471;-77
2020/12/06 00:09:19;;;;;;;15.73;11.13;;;6.30;69.00;;;;;;5026708;28;20064;-77
2020/12/06 00:11:45;;;;;;;16.17;10.83;;;6.30;69.20;;;;;;5025581;28;20089;-77
2020/12/06 00:14:10;;;;;;;15.33;9.63;;;6.20;69.20;;;;;;5029884;28;20030;-77
2020/12/06 00:16:36;;;;;;;19.17;10.80;;;6.20;69.30;;;;;;4994135;28;20056;-77
2020/12/06 00:19:02;;;;;;;18.17;10.87;;;6.20;69.30;;;;;;5008492;28;20045;-77
2020/12/06 00:21:28;;;;;;;16.73;10.17;;;6.20;69.30;;;;;;5028538;28;20071;-76
2020/12/06 00:23:54;;;;;;;17.83;11.03;;;6.20;69.30;;;;;;5016423;28;20124;-77
2020/12/06 00:26:22;;;;;;;16.37;11.50;;;6.20;69.40;;;;;;5030898;28;20116;-76
2020/12/06 00:28:49;;;;;;;18.67;11.27;;;6.30;69.30;;;;;;5030016;28;20143;-75
2020/12/06 00:31:15;;;;;;;17.80;11.37;;;6.30;69.20;;;;;;5011521;28;20059;-75
2020/12/06 00:33:41;;;;;;;17.47;11.07;;;6.30;69.20;;;;;;5025561;28;20052;-76
2020/12/06 00:36:11;;;;;;;20.77;12.57;;;6.30;69.10;;;;;;5014011;28;20056;-77
2020/12/06 00:38:38;;;;;;;19.60;13.10;;;6.30;69.20;;;;;;5034091;28;20075;-77
2020/12/06 00:41:04;;;;;;;18.73;11.67;;;6.30;69.20;;;;;;5029572;28;20052;-77
2020/12/06 00:43:30;;;;;;;20.40;12.00;;;6.30;69.20;;;;;;5029560;28;20079;-77
2020/12/06 00:45:55;;;;;;;18.13;11.60;;;6.30;69.20;;;;;;5012916;28;20029;-74
2020/12/06 00:48:21;;;;;;;19.20;11.93;;;6.30;69.10;;;;;;5031607;28;20025;-74
2020/12/06 00:50:47;;;;;;;18.17;11.33;;;6.30;68.90;;;;;;5013993;28;20051;-75
2020/12/06 00:53:13;;;;;;;17.50;11.27;;;6.30;68.90;;;;;;5030325;28;20030;-75
2020/12/06 00:55:39;;;;;;;20.77;13.37;;;6.30;68.80;;;;;;5008867;28;20038;-75
2020/12/06 00:58:04;;;;;;;19.60;13.37;;;6.30;68.90;;;;;;5029672;28;20072;-75
2020/12/06 01:00:30;;;;;;;24.43;12.57;;;6.30;69.00;;;;;;5018760;28;20059;-74
2020/12/06 01:02:56;;;;;;;17.93;11.23;;;6.30;69.10;;;;;;5027517;28;20041;-78
2020/12/06 01:05:21;;;;;;;21.00;11.63;;;6.30;69.20;;;;;;5012820;28;20067;-75
2020/12/06 01:07:47;;;;;;;24.33;15.23;;;6.20;69.30;;;;;;4996790;28;20397;-75
2020/12/06 01:10:13;;;;;;;24.73;13.67;;;6.20;69.30;;;;;;5011273;28;20049;-76
2020/12/06 01:12:40;;;;;;;18.83;11.97;;;6.20;69.30;;;;;;5030085;28;20398;-76
2020/12/06 01:15:08;;;;;;;24.73;13.33;;;6.30;69.40;;;;;;5013534;28;20189;-75
2020/12/06 01:17:33;;;;;;;21.17;13.07;;;6.20;69.30;;;;;;5030210;28;20075;-76
2020/12/06 01:19:59;;;;;;;26.93;15.53;;;6.30;69.30;;;;;;4995267;28;22040;-75
2020/12/06 01:22:25;;;;;;;27.87;13.47;;;6.20;69.30;;;;;;5013056;28;20435;-76
2020/12/06 01:24:51;;;;;;;21.53;13.53;;;6.30;69.30;;;;;;5030355;28;20476;-75
2020/12/06 01:27:17;;;;;;;30.90;15.70;;;6.30;69.40;;;;;;5030140;28;20037;-75
2020/12/06 01:29:43;;;;;;;26.57;15.13;;;6.30;69.30;;;;;;5020761;28;20109;-75
2020/12/06 01:32:08;;;;;;;35.83;17.53;;;6.20;69.30;;;;;;5011922;28;20467;-75
2020/12/06 01:34:34;;;;;;;34.77;18.83;;;6.20;69.40;;;;;;5024417;28;20055;-75
2020/12/06 01:37:00;;;;;;;36.27;18.17;;;6.30;69.40;;;;;;5015437;28;20033;-75
2020/12/06 01:39:26;;;;;;;32.40;16.23;;;6.30;69.30;;;;;;5019916;28;20168;-75
2020/12/06 01:41:56;;;;;;;30.17;16.03;;;6.30;69.20;;;;;;5020202;28;20053;-75
2020/12/06 01:44:23;;;;;;;30.80;14.63;;;6.30;69.10;;;;;;5032921;28;20033;-75
2020/12/06 01:46:51;;;;;;;23.47;12.90;;;6.30;69.10;;;;;;5016726;28;20029;-75
2020/12/06 01:49:20;;;;;;;26.03;14.23;;;6.30;69.10;;;;;;5030275;28;20168;-75
2020/12/06 01:51:49;;;;;;;18.73;11.53;;;6.30;69.10;;;;;;5014434;28;20037;-75
2020/12/06 01:54:14;;;;;;;26.40;14.50;;;6.30;69.10;;;;;;5020291;28;20025;-75
2020/12/06 01:56:40;;;;;;;30.67;15.00;;;6.30;69.10;;;;;;4997932;28;20022;-75
2020/12/06 01:59:06;;;;;;;44.30;19.43;;;6.30;69.20;;;;;;5033665;28;20046;-76
2020/12/06 02:01:31;;;;;;;32.47;15.20;;;6.30;69.10;;;;;;4999684;28;20029;-75
2020/12/06 02:03:57;;;;;;;36.90;17.60;;;6.30;69.20;;;;;;5029846;28;20605;-77
2020/12/06 02:06:23;;;;;;;24.90;12.80;;;6.40;69.10;;;;;;5013759;28;20497;-75
2020/12/06 02:08:49;;;;;;;25.70;14.67;;;6.40;69.10;;;;;;4999064;28;20040;-76
2020/12/06 02:11:36;;;;;;;20.20;11.90;;;6.40;69.00;;;;;;5014627;28;20089;-75
2020/12/06 02:14:02;;;;;;;26.60;13.03;;;6.40;69.00;;;;;;5036041;28;20025;-75
2020/12/06 02:16:28;;;;;;;23.93;13.30;;;6.40;69.00;;;;;;5032361;28;20473;-75
2020/12/06 02:18:53;;;;;;;19.00;11.17;;;6.40;69.00;;;;;;5033674;28;20116;-76
2020/12/06 02:21:19;;;;;;;16.80;11.07;;;6.40;69.00;;;;;;5032101;28;20033;-76
2020/12/06 02:23:45;;;;;;;19.87;11.23;;;6.40;69.10;;;;;;4989763;28;20439;-75
2020/12/06 02:26:11;;;;;;;19.50;12.47;;;6.40;69.20;;;;;;5023228;28;20060;-76
2020/12/06 02:28:36;;;;;;;18.03;11.63;;;6.40;69.30;;;;;;5029871;28;20439;-76
2020/12/06 02:31:02;;;;;;;17.53;12.07;;;6.40;69.30;;;;;;5012322;28;20360;-75
2020/12/06 02:33:27;;;;;;;17.83;10.30;;;6.50;69.30;;;;;;5033119;28;20132;-76
2020/12/06 02:35:53;;;;;;;16.17;10.73;;;6.50;69.20;;;;;;5032725;28;20041;-75
2020/12/06 02:38:19;;;;;;;16.00;10.60;;;6.50;69.20;;;;;;5033342;28;20368;-75
2020/12/06 02:40:45;;;;;;;16.97;10.77;;;6.50;69.20;;;;;;5009670;28;20033;-76
2020/12/06 02:43:10;;;;;;;17.13;10.30;;;6.50;69.10;;;;;;5031801;28;20475;-75
2020/12/06 02:45:36;;;;;;;18.07;11.43;;;6.50;69.10;;;;;;5030406;28;20061;-75
2020/12/06 02:48:02;;;;;;;17.80;11.07;;;6.50;69.20;;;;;;5031677;28;20377;-76
2020/12/06 02:50:27;;;;;;;17.70;12.17;;;6.50;69.10;;;;;;5011784;28;20033;-75
2020/12/06 02:52:57;;;;;;;18.90;12.53;;;6.50;69.10;;;;;;5030877;28;20437;-75
2020/12/06 02:55:27;;;;;;;16.40;10.40;;;6.50;69.20;;;;;;5032067;28;20045;-75
2020/12/06 02:57:53;;;;;;;14.93;10.40;;;6.50;69.20;;;;;;5031217;28;20040;-76
2020/12/06 03:00:19;;;;;;;19.00;11.03;;;6.40;69.20;;;;;;5009641;28;20040;-76
2020/12/06 03:02:45;;;;;;;16.97;10.70;;;6.40;69.20;;;;;;5031440;28;20534;-75
2020/12/06 03:05:11;;;;;;;17.30;11.27;;;6.40;69.20;;;;;;5027938;28;20151;-76
2020/12/06 03:07:36;;;;;;;17.93;10.97;;;6.40;69.30;;;;;;5033058;28;20035;-76
2020/12/06 03:10:06;;;;;;;16.33;10.37;;;6.40;69.40;;;;;;5030815;28;20164;-76
2020/12/06 03:12:35;;;;;;;16.77;10.07;;;6.40;69.40;;;;;;5030752;28;20063;-75
2020/12/06 03:15:01;;;;;;;18.33;11.37;;;6.40;69.50;;;;;;5030874;28;20029;-76
2020/12/06 03:17:27;;;;;;;18.17;11.23;;;6.40;69.50;;;;;;5005496;28;20030;-75
2020/12/06 03:19:53;;;;;;;20.17;12.13;;;6.40;69.60;;;;;;5026128;28;20406;-75
2020/12/06 03:22:18;;;;;;;20.13;12.90;;;6.40;69.60;;;;;;5014562;28;20048;-75
2020/12/06 03:24:44;;;;;;;19.67;12.33;;;6.40;69.60;;;;;;5031103;28;20042;-75
2020/12/06 03:27:09;;;;;;;17.87;10.47;;;6.40;69.60;;;;;;5033338;28;20044;-76
2020/12/06 03:29:35;;;;;;;17.90;10.90;;;6.40;69.60;;;;;;5013390;28;20037;-76
2020/12/06 03:32:01;;;;;;;18.00;12.03;;;6.40;69.60;;;;;;5002955;28;20125;-76
2020/12/06 03:34:26;;;;;;;19.80;12.27;;;6.40;69.60;;;;;;5031611;28;20798;-75
2020/12/06 03:36:52;;;;;;;18.73;12.23;;;6.40;69.70;;;;;;5014007;28;20057;-76
2020/12/06 03:39:17;;;;;;;21.70;12.10;;;6.50;69.70;;;;;;5030257;28;20037;-75
2020/12/06 03:41:46;;;;;;;21.23;12.93;;;6.40;69.60;;;;;;5032061;28;20091;-76
2020/12/06 03:44:12;;;;;;;21.97;13.97;;;6.50;69.70;;;;;;5032775;28;20086;-76
2020/12/06 03:46:38;;;;;;;19.63;13.57;;;6.50;69.70;;;;;;5031172;28;20033;-76
2020/12/06 03:49:04;;;;;;;21.67;13.83;;;6.50;69.70;;;;;;5032726;28;20033;-76
2020/12/06 03:51:30;;;;;;;20.63;12.17;;;6.50;69.80;;;;;;5012273;28;20034;-77
2020/12/06 03:53:55;;;;;;;19.90;12.60;;;6.50;69.80;;;;;;5032303;28;20038;-76
2020/12/06 03:56:21;;;;;;;17.30;11.57;;;6.50;69.90;;;;;;4989642;28;20454;-76
2020/12/06 03:58:46;;;;;;;18.07;12.00;;;6.60;69.80;;;;;;5030337;28;20083;-76
2020/12/06 04:01:12;;;;;;;18.00;11.60;;;6.60;69.70;;;;;;5030953;28;20102;-76
2020/12/06 04:03:38;;;;;;;20.60;11.90;;;6.60;69.70;;;;;;5030896;28;20041;-76
2020/12/06 04:06:03;;;;;;;16.73;10.43;;;6.60;69.70;;;;;;5030011;28;20037;-76
2020/12/06 04:08:29;;;;;;;17.60;11.67;;;6.70;69.70;;;;;;5014294;28;20137;-76
2020/12/06 04:10:55;;;;;;;16.53;10.50;;;6.70;69.60;;;;;;5010094;28;20038;-76
2020/12/06 04:13:20;;;;;;;16.93;11.23;;;6.60;69.50;;;;;;5033830;28;20483;-76
2020/12/06 04:15:46;;;;;;;19.33;11.80;;;6.70;69.60;;;;;;5009289;28;20040;-75
2020/12/06 04:18:12;;;;;;;18.93;11.67;;;6.60;69.60;;;;;;5016841;28;20033;-76
2020/12/06 04:20:37;;;;;;;21.17;12.30;;;6.50;69.60;;;;;;4997468;28;20429;-76
2020/12/06 04:23:03;;;;;;;16.43;10.43;;;6.40;69.80;;;;;;5012336;28;20143;-76
2020/12/06 04:25:29;;;;;;;19.23;11.07;;;6.40;70.00;;;;;;5011226;28;20436;-76
2020/12/06 04:27:54;;;;;;;16.97;11.23;;;6.40;70.00;;;;;;5031475;28;20033;-76
2020/12/06 04:30:20;;;;;;;19.63;11.67;;;6.50;70.10;;;;;;5029784;28;20032;-76
2020/12/06 04:32:45;;;;;;;17.27;11.37;;;6.50;70.00;;;;;;5013479;28;20041;-76
2020/12/06 04:35:11;;;;;;;16.50;10.70;;;6.50;70.10;;;;;;5000918;28;20037;-76
2020/12/06 04:37:37;;;;;;;18.30;12.23;;;6.50;70.00;;;;;;4992435;28;20022;-76
2020/12/06 04:40:04;;;;;;;18.07;11.37;;;6.50;69.90;;;;;;5025552;28;20041;-77
2020/12/06 04:42:30;;;;;;;18.80;12.17;;;6.50;69.90;;;;;;5014467;28;20095;-76
2020/12/06 04:44:56;;;;;;;18.73;10.80;;;6.50;69.80;;;;;;5031611;28;20041;-76
2020/12/06 04:47:36;;;;;;;18.73;12.17;;;6.50;69.90;;;;;;5029969;28;20032;-76
2020/12/06 04:50:04;;;;;;;17.20;10.97;;;6.50;69.90;;;;;;5012213;28;20022;-77
2020/12/06 04:52:41;;;;;;;17.33;12.10;;;6.50;69.90;;;;;;5024048;28;20029;-76
2020/12/06 04:55:10;;;;;;;19.17;12.40;;;6.50;69.70;;;;;;5004847;28;20049;-76
2020/12/06 04:57:37;;;;;;;18.47;12.20;;;6.60;69.70;;;;;;5009833;28;20108;-76
2020/12/06 05:00:08;;;;;;;19.23;11.87;;;6.60;69.60;;;;;;4995417;28;20362;-76
2020/12/06 05:02:38;;;;;;;18.00;11.67;;;6.60;69.60;;;;;;5030780;28;20026;-76
2020/12/06 05:05:04;;;;;;;16.40;10.27;;;6.60;69.50;;;;;;5030517;28;20065;-76
2020/12/06 05:07:31;;;;;;;17.47;10.17;;;6.60;69.40;;;;;;5014967;28;20034;-76
2020/12/06 05:09:57;;;;;;;17.53;10.43;;;6.70;69.40;;;;;;5027744;28;20501;-77
2020/12/06 05:12:23;;;;;;;17.10;11.33;;;6.70;69.40;;;;;;5033224;28;20053;-76
2020/12/06 05:14:50;;;;;;;18.63;11.43;;;6.80;69.30;;;;;;5034065;28;20037;-76
2020/12/06 05:17:15;;;;;;;17.53;11.03;;;6.80;69.20;;;;;;4999834;28;20398;-76
2020/12/06 05:19:41;;;;;;;18.73;11.70;;;6.80;69.20;;;;;;5036158;28;20034;-76
2020/12/06 05:22:07;;;;;;;18.03;12.50;;;6.80;69.10;;;;;;5035231;28;20037;-76
2020/12/06 05:24:34;;;;;;;16.67;10.87;;;6.80;69.10;;;;;;5032160;28;20431;-76
2020/12/06 05:27:00;;;;;;;15.53;10.30;;;6.80;69.00;;;;;;5017330;28;20065;-76
2020/12/06 05:29:26;;;;;;;16.27;11.00;;;6.80;69.00;;;;;;5030479;28;20072;-76
2020/12/06 05:31:55;;;;;;;18.33;12.53;;;6.80;69.00;;;;;;5032267;28;20547;-76
2020/12/06 05:34:21;;;;;;;17.93;12.47;;;6.80;68.90;;;;;;5034803;28;20048;-75
2020/12/06 05:36:47;;;;;;;19.07;12.03;;;6.80;68.90;;;;;;5030423;28;20037;-76
2020/12/06 05:39:13;;;;;;;21.23;12.97;;;6.80;68.90;;;;;;5032350;28;20379;-76
2020/12/06 05:41:38;;;;;;;19.83;11.03;;;6.80;68.90;;;;;;5010203;28;20037;-77
2020/12/06 05:44:07;;;;;;;19.27;12.77;;;6.80;68.80;;;;;;5007133;28;20034;-77
2020/12/06 05:46:35;;;;;;;18.40;11.33;;;6.80;68.80;;;;;;5025748;28;20497;-77
2020/12/06 05:49:03;;;;;;;20.60;12.30;;;6.80;68.80;;;;;;5031956;28;20029;-76
2020/12/06 05:51:29;;;;;;;19.50;11.97;;;6.80;68.70;;;;;;5035337;28;20132;-77
2020/12/06 05:53:57;;;;;;;21.73;12.63;;;6.80;68.70;;;;;;5027611;28;20048;-77
2020/12/06 05:56:23;;;;;;;19.47;11.50;;;6.80;68.70;;;;;;5016795;28;20479;-77
2020/12/06 05:58:50;;;;;;;19.23;12.47;;;6.80;68.70;;;;;;5035012;28;20026;-77
2020/12/06 06:01:17;;;;;;;19.37;12.50;;;6.80;68.80;;;;;;5033348;28;20029;-77
2020/12/06 06:03:46;;;;;;;19.70;13.23;;;6.80;68.80;;;;;;5032475;28;20124;-77
2020/12/06 06:06:20;;;;;;;20.07;12.87;;;6.80;68.80;;;;;;5033072;28;20104;-77
2020/12/06 06:08:49;;;;;;;21.20;13.50;;;6.80;68.70;;;;;;5032759;28;20030;-77
2020/12/06 06:11:24;;;;;;;20.93;13.63;;;6.80;68.60;;;;;;5014602;28;20099;-77
2020/12/06 06:13:57;;;;;;;20.87;12.83;;;6.80;68.70;;;;;;5032693;28;20033;-77
2020/12/06 06:16:25;;;;;;;21.50;13.13;;;6.80;68.70;;;;;;5033094;28;20483;-77
2020/12/06 06:18:51;;;;;;;22.00;13.80;;;6.70;68.70;;;;;;5033535;28;20117;-77
2020/12/06 06:21:38;;;;;;;21.23;12.27;;;6.70;68.80;;;;;;5023360;28;20029;-76
2020/12/06 06:24:08;;;;;;;21.00;13.77;;;6.70;68.90;;;;;;5028731;28;20029;-77
2020/12/06 06:26:38;;;;;;;20.67;12.60;;;6.70;68.90;;;;;;5015988;28;20335;-76
2020/12/06 06:29:11;;;;;;;27.23;14.93;;;6.70;69.00;;;;;;5032109;28;20064;-77
2020/12/06 06:31:39;;;;;;;24.13;14.27;;;6.70;69.00;;;;;;5013949;28;20539;-77
2020/12/06 06:34:06;;;;;;;26.73;14.90;;;6.60;69.20;;;;;;5015353;28;20596;-77
2020/12/06 06:36:33;;;;;;;24.40;14.63;;;6.60;69.30;;;;;;5015350;28;20041;-77
2020/12/06 06:39:00;;;;;;;23.43;14.40;;;6.70;69.30;;;;;;5008011;28;20427;-77
2020/12/06 06:41:27;;;;;;;22.30;13.60;;;6.60;69.20;;;;;;5015015;28;20045;-78
2020/12/06 06:44:00;;;;;;;26.17;13.63;;;6.70;69.20;;;;;;5030848;28;20037;-77
2020/12/06 06:46:31;;;;;;;25.30;15.33;;;6.70;69.10;;;;;;5029932;28;20092;-77
2020/12/06 06:48:57;;;;;;;21.90;13.97;;;6.80;69.20;;;;;;5033724;28;20037;-77
2020/12/06 06:51:23;;;;;;;25.70;16.80;;;6.70;69.30;;;;;;5030781;28;20053;-77
2020/12/06 06:53:50;;;;;;;23.67;15.13;;;6.80;69.40;;;;;;5008603;28;20075;-77
2020/12/06 06:56:20;;;;;;;23.30;13.77;;;6.90;69.30;;;;;;4998657;28;20037;-77
2020/12/06 06:58:49;;;;;;;25.90;15.13;;;6.90;69.20;;;;;;5033002;28;20025;-77
2020/12/06 07:01:18;;;;;;;24.07;14.53;;;6.90;69.10;;;;;;5032709;28;20030;-76
2020/12/06 07:03:53;;;;;;;25.60;15.23;;;6.90;69.00;;;;;;5033718;28;20425;-77
2020/12/06 07:06:47;;;;;;;26.10;15.53;;;7.00;69.00;;;;;;5014636;28;20025;-77
2020/12/06 07:09:27;;;;;;;24.08;15.52;;;7.00;68.90;;;;;;5030757;28;20022;-77
2020/12/06 07:11:55;;;;;;;25.87;17.33;;;7.00;68.90;;;;;;5033177;28;20057;-78
2020/12/06 07:14:25;;;;;;;27.33;16.67;;;7.00;68.90;;;;;;5030687;28;20087;-77
2020/12/06 07:16:52;;;;;;;23.47;14.73;;;7.00;68.90;;;;;;5032846;28;20022;-77
2020/12/06 07:19:18;;;;;;;24.07;14.10;;;7.00;68.90;;;;;;5013110;28;20033;-77
2020/12/06 07:21:43;;;;;;;23.83;15.60;;;7.00;68.90;;;;;;5013272;28;20064;-77
2020/12/06 07:24:09;;;;;;;26.37;16.60;;;7.00;68.90;;;;;;5031393;28;20037;-77
2020/12/06 07:26:35;;;;;;;24.03;13.80;;;6.90;68.90;;;;;;5032711;28;20491;-77
2020/12/06 07:29:01;;;;;;;23.57;13.93;;;6.90;69.00;;;;;;5013059;28;20040;-77
2020/12/06 07:31:27;;;;;;;23.57;14.93;;;6.80;69.10;;;;;;5029464;28;20208;-77
2020/12/06 07:33:54;;;;;;;23.67;15.57;;;6.80;69.20;;;;;;5031335;28;20132;-77
2020/12/06 07:36:20;;;;;;;25.60;15.20;;;6.70;69.40;;;;;;5032192;28;20459;-77
2020/12/06 07:38:46;;;;;;;25.57;15.37;;;6.70;69.40;;;;;;5030810;28;20026;-77
2020/12/06 07:41:12;;;;;;;22.67;14.83;;;6.70;69.40;;;;;;5032682;28;20068;-76
2020/12/06 07:43:39;;;;;;;24.73;15.07;;;6.70;69.40;;;;;;5029432;28;20034;-76
2020/12/06 07:46:16;;;;;;;26.73;16.53;;;6.60;69.40;;;;;;4997093;28;20045;-78
2020/12/06 07:48:43;;;;;;;24.10;15.20;;;6.70;69.50;;;;;;5030821;28;20060;-77
2020/12/06 07:51:09;;;;;;;24.40;15.87;;;6.60;69.60;;;;;;5030748;28;20033;-77
2020/12/06 07:53:51;;;;;;;26.40;16.93;;;6.60;69.50;;;;;;5028246;28;20353;-77
2020/12/06 07:56:22;;;;;;;24.13;15.33;;;7.80;70.30;;;;;;5031444;28;20029;-77
2020/12/06 07:59:17;;;;;;;26.30;16.20;;;6.80;69.70;;;;;;5031445;28;20033;-77
2020/12/06 08:01:44;;;;;;;26.20;15.70;;;6.80;69.50;;;;;;5002771;28;20103;-77
2020/12/06 08:04:14;;;;;;;25.90;16.67;;;6.90;69.50;;;;;;5028041;28;20037;-76
2020/12/06 08:06:43;;;;;;;26.83;16.30;;;6.90;69.40;;;;;;5009435;28;20033;-77
2020/12/06 08:09:11;;;;;;;25.40;15.77;;;6.90;69.40;;;;;;5026952;28;20044;-77
2020/12/06 08:11:43;;;;;;;28.57;17.13;;;7.00;69.40;;;;;;5026645;28;20046;-78
2020/12/06 08:14:09;;;;;;;23.97;16.50;;;7.00;69.40;;;;;;5028018;28;20060;-77
2020/12/06 08:16:35;;;;;;;25.60;16.33;;;7.10;69.40;;;;;;5023303;28;20030;-77
2020/12/06 08:19:02;;;;;;;26.00;16.00;;;7.10;69.30;;;;;;5026287;28;20044;-77
2020/12/06 08:21:43;;;;;;;27.87;17.50;;;7.10;69.40;;;;;;5027016;28;20038;-77
2020/12/06 08:24:22;;;;;;;23.97;15.07;;;7.20;69.40;;;;;;5028687;28;20060;-77
2020/12/06 08:26:49;;;;;;;26.13;16.10;;;7.20;69.30;;;;;;5027133;28;20033;-77
2020/12/06 08:29:15;;;;;;;22.80;14.80;;;7.20;69.40;;;;;;5006700;28;20112;-77
2020/12/06 08:31:42;;;;;;;28.73;16.20;;;7.20;69.40;;;;;;5029566;28;20068;-78
2020/12/06 08:34:12;;;;;;;25.93;15.47;;;7.20;69.40;;;;;;5022537;28;20040;-77
2020/12/06 08:36:38;;;;;;;26.53;14.40;;;7.20;69.40;;;;;;4999442;28;20037;-78
2020/12/06 08:39:20;;;;;;;22.50;13.87;;;7.20;69.40;;;;;;5022915;28;20037;-77
2020/12/06 08:41:47;;;;;;;24.07;15.23;;;7.30;69.60;;;;;;5009001;28;20045;-77
2020/12/06 08:44:13;;;;;;;24.23;14.37;;;7.30;69.50;;;;;;5022549;28;20030;-77
2020/12/06 08:46:49;;;;;;;24.43;15.20;;;7.30;69.60;;;;;;5024469;28;20040;-77
2020/12/06 08:49:17;;;;;;;25.27;16.57;;;7.30;69.60;;;;;;5019569;28;20619;-77
2020/12/06 08:51:54;;;;;;;25.97;15.77;;;7.40;69.60;;;;;;5013386;28;20198;-74
2020/12/06 08:54:33;;;;;;;29.93;17.57;;;7.40;69.50;;;;;;5021565;28;20431;-77
2020/12/06 08:57:11;;;;;;;27.73;17.10;;;7.30;69.40;;;;;;5012450;28;20463;-77
2020/12/06 08:59:41;;;;;;;26.23;16.53;;;7.30;69.40;;;;;;5028828;28;20071;-77
2020/12/06 09:02:07;;;;;;;29.60;17.07;;;7.30;69.40;;;;;;5030434;28;20056;-77
2020/12/06 09:04:34;;;;;;;27.20;16.70;;;7.40;69.50;;;;;;5028553;28;20033;-77
2020/12/06 09:07:00;;;;;;;26.70;16.53;;;7.40;69.40;;;;;;4999165;28;20033;-78
2020/12/06 09:09:26;;;;;;;28.57;17.50;;;7.40;69.40;;;;;;5020660;28;20053;-77
2020/12/06 09:11:52;;;;;;;28.83;17.80;;;7.50;69.30;;;;;;5027665;28;20073;-78
2020/12/06 09:14:18;;;;;;;31.30;18.67;;;7.50;69.10;;;;;;5022478;28;20064;-77
2020/12/06 09:16:44;;;;;;;27.10;16.63;;;7.60;69.00;;;;;;5027325;28;20523;-77
2020/12/06 09:19:10;;;;;;;25.57;16.77;;;7.70;69.00;;;;;;5005901;28;20061;-77
2020/12/06 09:21:36;;;;;;;25.23;16.47;;;7.70;68.80;;;;;;5010927;28;20068;-77
2020/12/06 09:24:01;;;;;;;28.63;18.17;;;7.80;68.70;;;;;;4993798;28;20053;-77
2020/12/06 09:26:27;;;;;;;29.40;18.25;;;7.80;68.50;;;;;;5010944;28;20037;-77
2020/12/06 09:28:52;;;;;;;31.23;19.27;;;7.80;68.50;;;;;;5009737;28;20033;-75
2020/12/06 09:31:22;;;;;;;29.13;18.13;;;7.80;68.40;;;;;;4991824;28;21993;-75
2020/12/06 09:33:48;;;;;;;32.90;18.92;;;7.90;68.40;;;;;;5024525;28;20036;-74
2020/12/06 09:36:14;;;;;;;30.80;17.70;;;8.00;68.30;;;;;;5026820;28;20030;-75
2020/12/06 09:38:39;;;;;;;26.73;16.40;;;8.10;68.20;;;;;;5026762;28;20433;-75
2020/12/06 09:41:06;;;;;;;30.20;19.17;;;8.20;68.00;;;;;;5006176;28;20029;-74
2020/12/06 09:43:32;;;;;;;29.33;19.67;;;8.30;67.70;;;;;;5029855;28;20101;-76
2020/12/06 09:45:57;;;;;;;27.73;17.13;;;8.40;67.50;;;;;;5007320;28;20041;-77
2020/12/06 09:48:24;;;;;;;32.08;18.63;;;8.50;67.40;;;;;;5026988;28;20072;-77
2020/12/06 09:50:50;;;;;;;26.80;18.02;;;8.70;67.20;;;;;;5010886;28;20160;-77
2020/12/06 09:53:16;;;;;;;25.92;16.70;;;8.80;66.90;;;;;;5009396;28;20116;-76
2020/12/06 09:55:42;;;;;;;25.80;16.83;;;9.00;66.80;;;;;;5008265;28;20109;-74
2020/12/06 09:58:08;;;;;;;23.08;15.65;;;9.00;66.30;;;;;;5008871;28;20132;-75
2020/12/06 10:00:33;;;;;;;27.85;16.42;;;8.90;66.30;;;;;;5013190;28;20069;-75
2020/12/06 10:02:59;;;;;;;25.45;15.68;;;8.80;66.20;;;;;;5012384;28;20060;-74
2020/12/06 10:05:25;;;;;;;25.90;15.95;;;8.80;66.50;;;;;;4996550;28;20113;-75
2020/12/06 10:07:50;;;;;;;26.00;17.08;;;8.90;66.50;;;;;;5011218;28;20083;-74
2020/12/06 10:10:16;;;;;;;28.90;16.38;;;9.10;66.30;;;;;;5029783;28;20029;-76
2020/12/06 10:12:42;;;;;;;26.15;16.98;;;9.10;65.80;;;;;;5022610;28;20170;-75
2020/12/06 10:15:07;;;;;;;25.92;15.43;;;9.10;65.70;;;;;;5028759;28;20029;-74
2020/12/06 10:17:33;;;;;;;22.48;14.60;;;9.00;66.10;;;;;;5032273;28;20048;-76
2020/12/06 10:20:00;;;;;;;23.45;15.15;;;9.10;66.10;;;;;;4993660;28;20046;-75
2020/12/06 10:22:25;;;;;;;22.63;14.32;;;9.10;66.10;;;;;;5031234;28;20040;-77
2020/12/06 10:24:51;;;;;;;18.58;12.52;;;9.10;66.20;;;;;;5003744;28;20049;-78
2020/12/06 10:27:17;;;;;;;25.17;15.52;;;9.20;66.20;;;;;;5022614;28;20045;-76
2020/12/06 10:29:42;;;;;;;29.17;18.08;;;9.30;66.10;;;;;;5027153;28;20030;-75
2020/12/06 10:32:08;;;;;;;30.58;17.30;;;9.30;65.70;;;;;;5025203;28;20037;-74
2020/12/06 10:34:33;;;;;;;28.20;19.17;;;9.40;65.40;;;;;;5026840;28;20033;-75
2020/12/06 10:36:59;;;;;;;27.92;17.40;;;9.40;65.10;;;;;;5027285;28;20034;-77
2020/12/06 10:39:27;;;;;;;28.65;17.85;;;9.40;64.80;;;;;;5031381;28;20032;-76
2020/12/06 10:41:56;;;;;;;30.33;17.63;;;9.40;64.80;;;;;;5028934;28;20387;-74
2020/12/06 10:44:23;;;;;;;38.38;19.45;;;9.30;64.70;;;;;;5029610;28;20033;-75
2020/12/06 10:46:50;;;;;;;30.50;17.15;;;9.30;65.00;;;;;;5020585;28;20037;-75
2020/12/06 10:49:16;;;;;;;25.52;16.70;;;9.30;65.20;;;;;;5026069;28;20037;-79
2020/12/06 10:51:43;;;;;;;24.55;16.27;;;9.50;65.20;;;;;;5030851;28;20033;-78
2020/12/06 10:54:09;;;;;;;23.88;14.90;;;9.70;64.90;;;;;;5024454;28;20813;-81
2020/12/06 10:56:39;;;;;;;22.85;14.52;;;9.90;64.70;;;;;;5006952;28;20053;-77
2020/12/06 10:59:05;;;;;;;21.92;15.48;;;10.10;64.40;;;;;;5029511;28;20049;-79
2020/12/06 11:01:32;;;;;;;22.33;15.23;;;10.30;64.10;;;;;;5023603;28;20498;-80
2020/12/06 11:03:58;;;;;;;24.30;15.85;;;10.30;63.60;;;;;;5024557;28;20117;-78
2020/12/06 11:06:25;;;;;;;22.15;15.32;;;10.40;63.30;;;;;;5018166;28;20033;-78
2020/12/06 11:08:51;;;;;;;19.77;13.75;;;10.40;63.30;;;;;;5023124;28;20037;-78
2020/12/06 11:11:19;;;;;;;21.92;14.77;;;10.40;63.40;;;;;;5027423;28;20631;-78
2020/12/06 11:13:44;;;;;;;21.58;14.18;;;10.40;63.40;;;;;;5007684;28;20036;-78
2020/12/06 11:16:14;;;;;;;22.00;14.32;;;10.40;63.10;;;;;;5019294;28;20037;-77
2020/12/06 11:18:40;;;;;;;22.00;13.93;;;10.30;62.90;;;;;;5006588;28;20121;-78
2020/12/06 11:21:05;;;;;;;23.63;15.20;;;10.20;62.90;;;;;;5008548;28;20088;-75
2020/12/06 11:23:31;;;;;;;23.85;14.40;;;10.10;63.10;;;;;;5023685;28;20045;-77
2020/12/06 11:25:57;;;;;;;20.85;14.32;;;10.10;63.20;;;;;;5006527;28;20069;-76
2020/12/06 11:28:22;;;;;;;22.42;13.98;;;10.00;63.40;;;;;;5025128;28;20040;-77
2020/12/06 11:30:48;;;;;;;22.95;15.95;;;9.90;63.40;;;;;;5026508;28;20028;-77
2020/12/06 11:33:14;;;;;;;21.50;14.48;;;9.90;63.70;;;;;;5026518;28;20033;-77
2020/12/06 11:35:40;;;;;;;20.70;13.27;;;9.90;63.90;;;;;;5022421;28;20379;-82
2020/12/06 11:38:05;;;;;;;24.70;14.90;;;9.80;64.20;;;;;;5023265;28;20048;-80
2020/12/06 11:40:31;;;;;;;19.05;13.43;;;9.80;64.40;;;;;;4998319;28;20155;-76
2020/12/06 11:42:57;;;;;;;21.92;13.38;;;9.70;64.60;;;;;;5019804;28;20140;-78
2020/12/06 11:45:23;;;;;;;24.58;16.70;;;9.70;64.80;;;;;;5022682;28;20107;-77
2020/12/06 11:47:48;;;;;;;22.83;14.85;;;9.60;65.00;;;;;;5011462;28;20033;-78
2020/12/06 11:50:14;;;;;;;24.42;16.50;;;9.60;65.10;;;;;;5024243;28;20025;-78
2020/12/06 11:52:40;;;;;;;22.88;14.35;;;9.60;65.00;;;;;;5018898;28;20048;-77
2020/12/06 11:55:06;;;;;;;23.02;15.43;;;9.70;65.00;;;;;;5003539;28;20477;-75
2020/12/06 11:57:31;;;;;;;20.92;13.82;;;9.60;65.00;;;;;;5015949;28;20047;-76
2020/12/06 11:59:57;;;;;;;22.05;15.25;;;9.70;65.30;;;;;;5030023;28;20332;-77
2020/12/06 12:02:22;;;;;;;20.95;14.38;;;9.70;65.30;;;;;;5021303;28;20410;-78
2020/12/06 12:04:50;;;;;;;21.83;14.48;;;9.70;65.10;;;;;;5024811;28;20081;-80
2020/12/06 12:07:18;;;;;;;21.05;13.40;;;9.70;65.00;;;;;;5024780;28;20094;-79
2020/12/06 12:09:43;;;;;;;19.52;13.75;;;9.70;64.90;;;;;;5027003;28;20466;-79
2020/12/06 12:12:09;;;;;;;18.23;13.05;;;9.60;64.80;;;;;;5024874;28;20060;-80
2020/12/06 12:14:35;;;;;;;20.63;13.52;;;9.60;65.00;;;;;;5026463;28;20135;-82
2020/12/06 12:17:01;;;;;;;19.63;14.18;;;9.70;65.00;;;;;;5026829;28;20068;-79
2020/12/06 12:19:27;;;;;;;20.67;14.15;;;9.70;64.90;;;;;;5026907;28;20057;-78
2020/12/06 12:21:52;;;;;;;22.88;14.40;;;9.70;64.90;;;;;;5019934;28;20033;-77
2020/12/06 12:24:18;;;;;;;22.13;13.25;;;9.70;65.00;;;;;;5017850;28;20034;-73
2020/12/06 12:26:43;;;;;;;21.63;14.90;;;9.60;65.10;;;;;;5024102;28;20034;-73
2020/12/06 12:29:09;;;;;;;19.80;13.95;;;9.70;65.20;;;;;;5010542;28;20076;-72
2020/12/06 12:31:34;;;;;;;20.65;12.93;;;9.80;65.40;;;;;;5011644;28;20033;-73
2020/12/06 12:34:00;;;;;;;21.85;14.20;;;9.80;65.30;;;;;;5034864;28;20104;-73
2020/12/06 12:36:26;;;;;;;20.05;13.63;;;9.80;65.40;;;;;;5021823;28;20348;-72